sensor_id;sensor_type;location;lat;lon;timestamp;temperature;humidity
24146;DHT22;12308;50.948;4.706;2022-08-25T00:01:59;22.30;99.90
24146;DHT22;12308;50.948;4.706;2022-08-25T00:04:26;22.40;99.90
24146;DHT22;12308;50.948;4.706;2022-08-25T00:06:54;22.40;99.90
24146;DHT22;12308;50.948;4.706;2022-08-25T00:09:22;22.30;99.90
24146;DHT22;12308;50.948;4.706;2022-08-25T00:11:48;22.30;99.90
24146;DHT22;12308;50.948;4.706;2022-08-25T00:14:18;22.30;99.90
24146;DHT22;12308;50.948;4.706;2022-08-25T00:16:44;22.20;99.90
24146;DHT22;12308;50.948;4.706;2022-08-25T00:19:15;22.10;99.90
24146;DHT22;12308;50.948;4.706;2022-08-25T00:21:42;22.10;99.90
24146;DHT22;12308;50.948;4.706;2022-08-25T00:24:09;22.10;99.90
24146;DHT22;12308;50.948;4.706;2022-08-25T00:26:39;22.10;99.90
24146;DHT22;12308;50.948;4.706;2022-08-25T00:29:06;21.90;99.90
24146;DHT22;12308;50.948;4.706;2022-08-25T00:31:32;21.80;99.90
24146;DHT22;12308;50.948;4.706;2022-08-25T00:33:58;21.80;99.90
24146;DHT22;12308;50.948;4.706;2022-08-25T00:36:24;21.80;99.90
24146;DHT22;12308;50.948;4.706;2022-08-25T00:38:50;21.70;99.90
24146;DHT22;12308;50.948;4.706;2022-08-25T00:41:22;21.70;99.90
24146;DHT22;12308;50.948;4.706;2022-08-25T00:43:51;21.70;99.90
24146;DHT22;12308;50.948;4.706;2022-08-25T00:46:24;21.70;99.90
24146;DHT22;12308;50.948;4.706;2022-08-25T00:48:54;21.70;99.90
24146;DHT22;12308;50.948;4.706;2022-08-25T00:51:34;21.70;99.90
24146;DHT22;12308;50.948;4.706;2022-08-25T00:54:02;21.60;99.90
24146;DHT22;12308;50.948;4.706;2022-08-25T00:56:29;21.60;99.90
24146;DHT22;12308;50.948;4.706;2022-08-25T00:58:57;21.50;99.90
24146;DHT22;12308;50.948;4.706;2022-08-25T01:01:24;21.60;99.90
24146;DHT22;12308;50.948;4.706;2022-08-25T01:03:50;21.50;99.90
24146;DHT22;12308;50.948;4.706;2022-08-25T01:06:16;21.50;99.90
24146;DHT22;12308;50.948;4.706;2022-08-25T01:08:42;21.40;99.90
24146;DHT22;12308;50.948;4.706;2022-08-25T01:11:09;21.40;99.90
24146;DHT22;12308;50.948;4.706;2022-08-25T01:13:44;21.40;99.90
24146;DHT22;12308;50.948;4.706;2022-08-25T01:16:14;21.30;99.90
24146;DHT22;12308;50.948;4.706;2022-08-25T01:18:50;21.30;99.90
24146;DHT22;12308;50.948;4.706;2022-08-25T01:21:18;21.20;99.90
24146;DHT22;12308;50.948;4.706;2022-08-25T01:23:45;21.10;99.90
24146;DHT22;12308;50.948;4.706;2022-08-25T01:26:15;21.10;99.90
24146;DHT22;12308;50.948;4.706;2022-08-25T01:28:43;21.10;99.90
24146;DHT22;12308;50.948;4.706;2022-08-25T01:31:28;21.10;99.90
24146;DHT22;12308;50.948;4.706;2022-08-25T01:33:56;21.10;99.90
24146;DHT22;12308;50.948;4.706;2022-08-25T01:36:22;21.00;99.90
24146;DHT22;12308;50.948;4.706;2022-08-25T01:38:49;21.00;99.90
24146;DHT22;12308;50.948;4.706;2022-08-25T01:44:00;21.00;99.90
24146;DHT22;12308;50.948;4.706;2022-08-25T01:46:26;20.90;99.90
24146;DHT22;12308;50.948;4.706;2022-08-25T01:48:51;20.90;99.90
24146;DHT22;12308;50.948;4.706;2022-08-25T01:51:20;20.80;99.90
24146;DHT22;12308;50.948;4.706;2022-08-25T01:53:48;20.80;99.90
24146;DHT22;12308;50.948;4.706;2022-08-25T01:56:16;20.90;99.90
24146;DHT22;12308;50.948;4.706;2022-08-25T01:58:44;20.80;99.90
24146;DHT22;12308;50.948;4.706;2022-08-25T02:01:14;20.80;99.90
24146;DHT22;12308;50.948;4.706;2022-08-25T02:03:42;20.80;99.90
24146;DHT22;12308;50.948;4.706;2022-08-25T02:06:14;20.70;99.90
24146;DHT22;12308;50.948;4.706;2022-08-25T02:08:41;20.70;99.90
24146;DHT22;12308;50.948;4.706;2022-08-25T02:11:13;20.70;99.90
24146;DHT22;12308;50.948;4.706;2022-08-25T02:13:40;20.70;99.90
24146;DHT22;12308;50.948;4.706;2022-08-25T02:16:08;20.70;99.90
24146;DHT22;12308;50.948;4.706;2022-08-25T02:18:35;20.70;99.90
24146;DHT22;12308;50.948;4.706;2022-08-25T02:21:01;20.70;99.90
24146;DHT22;12308;50.948;4.706;2022-08-25T02:23:27;20.70;99.90
24146;DHT22;12308;50.948;4.706;2022-08-25T02:25:53;20.70;99.90
24146;DHT22;12308;50.948;4.706;2022-08-25T02:28:21;20.70;99.90
24146;DHT22;12308;50.948;4.706;2022-08-25T02:30:47;20.60;99.90
24146;DHT22;12308;50.948;4.706;2022-08-25T02:33:12;20.70;99.90
24146;DHT22;12308;50.948;4.706;2022-08-25T02:35:38;20.60;99.90
24146;DHT22;12308;50.948;4.706;2022-08-25T02:38:04;20.60;99.90
24146;DHT22;12308;50.948;4.706;2022-08-25T02:40:30;20.60;99.90
24146;DHT22;12308;50.948;4.706;2022-08-25T02:42:56;20.70;99.90
24146;DHT22;12308;50.948;4.706;2022-08-25T02:45:22;20.70;99.90
24146;DHT22;12308;50.948;4.706;2022-08-25T02:47:47;20.70;99.90
24146;DHT22;12308;50.948;4.706;2022-08-25T02:50:13;20.70;99.90
24146;DHT22;12308;50.948;4.706;2022-08-25T02:52:39;20.80;99.90
24146;DHT22;12308;50.948;4.706;2022-08-25T02:55:08;20.80;99.90
24146;DHT22;12308;50.948;4.706;2022-08-25T02:57:34;20.90;99.90
24146;DHT22;12308;50.948;4.706;2022-08-25T03:00:01;20.90;99.90
24146;DHT22;12308;50.948;4.706;2022-08-25T03:02:27;20.90;99.90
24146;DHT22;12308;50.948;4.706;2022-08-25T03:04:52;20.90;99.90
24146;DHT22;12308;50.948;4.706;2022-08-25T03:07:19;20.80;99.90
24146;DHT22;12308;50.948;4.706;2022-08-25T03:09:46;20.70;99.90
24146;DHT22;12308;50.948;4.706;2022-08-25T03:12:12;20.70;99.90
24146;DHT22;12308;50.948;4.706;2022-08-25T03:14:39;20.60;99.90
24146;DHT22;12308;50.948;4.706;2022-08-25T03:17:06;20.60;99.90
24146;DHT22;12308;50.948;4.706;2022-08-25T03:19:32;20.60;99.90
24146;DHT22;12308;50.948;4.706;2022-08-25T03:21:58;20.50;99.90
24146;DHT22;12308;50.948;4.706;2022-08-25T03:24:24;20.60;99.90
24146;DHT22;12308;50.948;4.706;2022-08-25T03:26:50;20.60;99.90
24146;DHT22;12308;50.948;4.706;2022-08-25T03:29:22;20.50;99.90
24146;DHT22;12308;50.948;4.706;2022-08-25T03:31:49;20.50;99.90
24146;DHT22;12308;50.948;4.706;2022-08-25T03:34:16;20.50;99.90
24146;DHT22;12308;50.948;4.706;2022-08-25T03:36:44;20.50;99.90
24146;DHT22;12308;50.948;4.706;2022-08-25T03:39:11;20.40;99.90
24146;DHT22;12308;50.948;4.706;2022-08-25T03:41:37;20.40;99.90
24146;DHT22;12308;50.948;4.706;2022-08-25T03:44:04;20.40;99.90
24146;DHT22;12308;50.948;4.706;2022-08-25T03:46:37;20.40;99.90
24146;DHT22;12308;50.948;4.706;2022-08-25T03:49:05;20.30;99.90
24146;DHT22;12308;50.948;4.706;2022-08-25T03:51:34;20.30;99.90
24146;DHT22;12308;50.948;4.706;2022-08-25T03:54:01;20.30;99.90
24146;DHT22;12308;50.948;4.706;2022-08-25T03:56:27;20.20;99.90
24146;DHT22;12308;50.948;4.706;2022-08-25T03:58:54;20.20;99.90
24146;DHT22;12308;50.948;4.706;2022-08-25T04:01:20;20.10;99.90
24146;DHT22;12308;50.948;4.706;2022-08-25T04:03:46;20.00;99.90
24146;DHT22;12308;50.948;4.706;2022-08-25T04:06:13;20.20;99.90
24146;DHT22;12308;50.948;4.706;2022-08-25T04:08:39;20.20;99.90
24146;DHT22;12308;50.948;4.706;2022-08-25T04:11:11;20.30;99.90
24146;DHT22;12308;50.948;4.706;2022-08-25T04:13:38;20.20;99.90
24146;DHT22;12308;50.948;4.706;2022-08-25T04:16:16;20.20;99.90
24146;DHT22;12308;50.948;4.706;2022-08-25T04:18:43;20.10;99.90
24146;DHT22;12308;50.948;4.706;2022-08-25T04:21:10;20.10;99.90
24146;DHT22;12308;50.948;4.706;2022-08-25T04:23:37;20.00;99.90
24146;DHT22;12308;50.948;4.706;2022-08-25T04:26:14;19.90;99.90
24146;DHT22;12308;50.948;4.706;2022-08-25T04:28:40;19.90;99.90
24146;DHT22;12308;50.948;4.706;2022-08-25T04:31:10;19.90;99.90
24146;DHT22;12308;50.948;4.706;2022-08-25T04:33:37;20.00;99.90
24146;DHT22;12308;50.948;4.706;2022-08-25T04:36:05;20.00;99.90
24146;DHT22;12308;50.948;4.706;2022-08-25T04:38:31;20.10;99.90
24146;DHT22;12308;50.948;4.706;2022-08-25T04:40:58;20.10;99.90
24146;DHT22;12308;50.948;4.706;2022-08-25T04:43:24;20.10;99.90
24146;DHT22;12308;50.948;4.706;2022-08-25T04:45:50;20.00;99.90
24146;DHT22;12308;50.948;4.706;2022-08-25T04:48:17;19.90;99.90
24146;DHT22;12308;50.948;4.706;2022-08-25T04:50:42;19.80;99.90
24146;DHT22;12308;50.948;4.706;2022-08-25T04:53:09;19.90;99.90
24146;DHT22;12308;50.948;4.706;2022-08-25T04:55:45;20.00;99.90
24146;DHT22;12308;50.948;4.706;2022-08-25T04:58:12;20.10;99.90
24146;DHT22;12308;50.948;4.706;2022-08-25T05:00:39;20.00;99.90
24146;DHT22;12308;50.948;4.706;2022-08-25T05:03:05;20.00;99.90
24146;DHT22;12308;50.948;4.706;2022-08-25T05:05:35;20.10;99.90
24146;DHT22;12308;50.948;4.706;2022-08-25T05:08:01;20.00;99.90
24146;DHT22;12308;50.948;4.706;2022-08-25T05:10:26;20.00;99.90
24146;DHT22;12308;50.948;4.706;2022-08-25T05:12:52;19.90;99.90
24146;DHT22;12308;50.948;4.706;2022-08-25T05:15:18;20.00;99.90
24146;DHT22;12308;50.948;4.706;2022-08-25T05:18:12;20.00;99.90
24146;DHT22;12308;50.948;4.706;2022-08-25T05:20:38;20.10;99.90
24146;DHT22;12308;50.948;4.706;2022-08-25T05:23:04;20.10;99.90
24146;DHT22;12308;50.948;4.706;2022-08-25T05:25:30;20.20;99.90
24146;DHT22;12308;50.948;4.706;2022-08-25T05:27:56;20.20;99.90
24146;DHT22;12308;50.948;4.706;2022-08-25T05:30:22;20.10;99.90
24146;DHT22;12308;50.948;4.706;2022-08-25T05:32:47;20.20;99.90
24146;DHT22;12308;50.948;4.706;2022-08-25T05:35:13;20.30;99.90
24146;DHT22;12308;50.948;4.706;2022-08-25T05:37:40;20.30;99.90
24146;DHT22;12308;50.948;4.706;2022-08-25T05:40:07;20.40;99.90
24146;DHT22;12308;50.948;4.706;2022-08-25T05:42:33;20.50;99.90
24146;DHT22;12308;50.948;4.706;2022-08-25T05:44:59;20.60;99.90
24146;DHT22;12308;50.948;4.706;2022-08-25T05:47:25;20.70;99.90
24146;DHT22;12308;50.948;4.706;2022-08-25T05:49:50;20.90;99.90
24146;DHT22;12308;50.948;4.706;2022-08-25T05:52:16;21.00;99.90
24146;DHT22;12308;50.948;4.706;2022-08-25T05:54:42;21.00;99.90
24146;DHT22;12308;50.948;4.706;2022-08-25T05:57:08;21.10;99.90
24146;DHT22;12308;50.948;4.706;2022-08-25T05:59:34;21.30;99.90
24146;DHT22;12308;50.948;4.706;2022-08-25T06:02:00;21.40;99.90
24146;DHT22;12308;50.948;4.706;2022-08-25T06:04:44;21.40;99.90
24146;DHT22;12308;50.948;4.706;2022-08-25T06:07:10;21.60;99.90
24146;DHT22;12308;50.948;4.706;2022-08-25T06:09:38;21.80;99.90
24146;DHT22;12308;50.948;4.706;2022-08-25T06:12:04;22.00;99.90
24146;DHT22;12308;50.948;4.706;2022-08-25T06:14:30;22.10;99.90
24146;DHT22;12308;50.948;4.706;2022-08-25T06:16:56;22.30;99.90
24146;DHT22;12308;50.948;4.706;2022-08-25T06:19:23;22.50;99.90
24146;DHT22;12308;50.948;4.706;2022-08-25T06:21:51;22.60;99.90
24146;DHT22;12308;50.948;4.706;2022-08-25T06:24:17;22.70;99.90
24146;DHT22;12308;50.948;4.706;2022-08-25T06:26:42;22.80;99.90
24146;DHT22;12308;50.948;4.706;2022-08-25T06:29:08;22.90;99.90
24146;DHT22;12308;50.948;4.706;2022-08-25T06:31:34;23.00;99.90
24146;DHT22;12308;50.948;4.706;2022-08-25T06:33:59;23.10;99.90
24146;DHT22;12308;50.948;4.706;2022-08-25T06:36:25;23.30;99.90
24146;DHT22;12308;50.948;4.706;2022-08-25T06:38:51;23.40;99.90
24146;DHT22;12308;50.948;4.706;2022-08-25T06:41:17;23.50;99.90
24146;DHT22;12308;50.948;4.706;2022-08-25T06:43:43;23.70;99.90
24146;DHT22;12308;50.948;4.706;2022-08-25T06:46:11;23.80;99.90
24146;DHT22;12308;50.948;4.706;2022-08-25T06:48:38;23.90;99.90
24146;DHT22;12308;50.948;4.706;2022-08-25T06:51:08;24.00;99.90
24146;DHT22;12308;50.948;4.706;2022-08-25T06:53:34;24.20;99.90
24146;DHT22;12308;50.948;4.706;2022-08-25T06:56:00;24.30;99.90
24146;DHT22;12308;50.948;4.706;2022-08-25T06:58:26;24.40;99.90
24146;DHT22;12308;50.948;4.706;2022-08-25T07:00:51;24.50;99.90
24146;DHT22;12308;50.948;4.706;2022-08-25T07:03:17;24.60;99.90
24146;DHT22;12308;50.948;4.706;2022-08-25T07:05:53;24.70;99.90
24146;DHT22;12308;50.948;4.706;2022-08-25T07:08:19;25.10;99.90
24146;DHT22;12308;50.948;4.706;2022-08-25T07:10:46;25.00;99.90
24146;DHT22;12308;50.948;4.706;2022-08-25T07:13:12;24.90;99.90
24146;DHT22;12308;50.948;4.706;2022-08-25T07:15:38;24.90;99.90
24146;DHT22;12308;50.948;4.706;2022-08-25T07:18:05;24.90;99.90
24146;DHT22;12308;50.948;4.706;2022-08-25T07:20:33;25.10;99.90
24146;DHT22;12308;50.948;4.706;2022-08-25T07:22:59;25.30;99.90
24146;DHT22;12308;50.948;4.706;2022-08-25T07:25:25;25.50;99.90
24146;DHT22;12308;50.948;4.706;2022-08-25T07:27:50;25.60;99.90
24146;DHT22;12308;50.948;4.706;2022-08-25T07:30:16;25.80;99.90
24146;DHT22;12308;50.948;4.706;2022-08-25T07:32:42;25.90;99.90
24146;DHT22;12308;50.948;4.706;2022-08-25T07:35:08;26.00;99.90
24146;DHT22;12308;50.948;4.706;2022-08-25T07:37:46;26.00;99.90
24146;DHT22;12308;50.948;4.706;2022-08-25T07:42:42;26.20;99.90
24146;DHT22;12308;50.948;4.706;2022-08-25T07:45:10;26.20;99.90
24146;DHT22;12308;50.948;4.706;2022-08-25T07:47:37;26.40;99.90
24146;DHT22;12308;50.948;4.706;2022-08-25T07:50:08;26.50;99.90
24146;DHT22;12308;50.948;4.706;2022-08-25T07:52:34;26.50;99.90
24146;DHT22;12308;50.948;4.706;2022-08-25T07:55:00;26.60;99.90
24146;DHT22;12308;50.948;4.706;2022-08-25T07:57:26;26.60;99.90
24146;DHT22;12308;50.948;4.706;2022-08-25T07:59:54;26.60;99.90
24146;DHT22;12308;50.948;4.706;2022-08-25T08:02:20;26.70;99.90
24146;DHT22;12308;50.948;4.706;2022-08-25T08:04:48;26.90;99.90
24146;DHT22;12308;50.948;4.706;2022-08-25T08:07:24;27.00;99.90
24146;DHT22;12308;50.948;4.706;2022-08-25T08:09:51;27.00;99.90
24146;DHT22;12308;50.948;4.706;2022-08-25T08:12:17;27.10;99.90
24146;DHT22;12308;50.948;4.706;2022-08-25T08:14:44;27.10;99.90
24146;DHT22;12308;50.948;4.706;2022-08-25T08:17:10;27.10;99.90
24146;DHT22;12308;50.948;4.706;2022-08-25T08:19:36;27.20;99.90
24146;DHT22;12308;50.948;4.706;2022-08-25T08:22:03;27.40;99.90
24146;DHT22;12308;50.948;4.706;2022-08-25T08:24:30;27.50;99.90
24146;DHT22;12308;50.948;4.706;2022-08-25T08:26:57;27.60;99.90
24146;DHT22;12308;50.948;4.706;2022-08-25T08:29:23;27.70;99.90
24146;DHT22;12308;50.948;4.706;2022-08-25T08:31:48;27.90;99.90
24146;DHT22;12308;50.948;4.706;2022-08-25T08:34:14;28.00;99.90
24146;DHT22;12308;50.948;4.706;2022-08-25T08:36:40;28.20;99.90
24146;DHT22;12308;50.948;4.706;2022-08-25T08:39:06;28.30;99.90
24146;DHT22;12308;50.948;4.706;2022-08-25T08:52:23;28.40;99.90
24146;DHT22;12308;50.948;4.706;2022-08-25T08:54:57;28.30;99.90
24146;DHT22;12308;50.948;4.706;2022-08-25T08:57:26;28.30;99.90
24146;DHT22;12308;50.948;4.706;2022-08-25T08:59:58;28.20;99.90
24146;DHT22;12308;50.948;4.706;2022-08-25T09:02:30;28.30;99.90
24146;DHT22;12308;50.948;4.706;2022-08-25T09:05:01;28.50;99.90
24146;DHT22;12308;50.948;4.706;2022-08-25T09:07:34;28.50;99.90
24146;DHT22;12308;50.948;4.706;2022-08-25T09:10:02;28.50;99.90
24146;DHT22;12308;50.948;4.706;2022-08-25T09:21:52;29.00;99.90
24146;DHT22;12308;50.948;4.706;2022-08-25T09:27:56;29.20;99.90
24146;DHT22;12308;50.948;4.706;2022-08-25T09:30:29;29.40;99.90
24146;DHT22;12308;50.948;4.706;2022-08-25T09:32:59;29.40;99.90
24146;DHT22;12308;50.948;4.706;2022-08-25T09:35:32;29.40;99.90
24146;DHT22;12308;50.948;4.706;2022-08-25T09:38:04;29.50;99.90
24146;DHT22;12308;50.948;4.706;2022-08-25T09:40:33;29.50;99.90
24146;DHT22;12308;50.948;4.706;2022-08-25T09:43:00;29.50;99.90
24146;DHT22;12308;50.948;4.706;2022-08-25T09:45:45;29.60;99.90
24146;DHT22;12308;50.948;4.706;2022-08-25T09:48:25;29.60;99.90
24146;DHT22;12308;50.948;4.706;2022-08-25T09:50:56;29.50;99.90
24146;DHT22;12308;50.948;4.706;2022-08-25T09:53:23;29.50;99.90
24146;DHT22;12308;50.948;4.706;2022-08-25T09:55:58;29.70;99.90
24146;DHT22;12308;50.948;4.706;2022-08-25T09:58:24;29.90;99.90
24146;DHT22;12308;50.948;4.706;2022-08-25T10:01:12;30.00;99.90
24146;DHT22;12308;50.948;4.706;2022-08-25T10:03:57;30.20;99.90
24146;DHT22;12308;50.948;4.706;2022-08-25T10:06:24;30.20;99.90
24146;DHT22;12308;50.948;4.706;2022-08-25T10:08:58;30.60;99.90
24146;DHT22;12308;50.948;4.706;2022-08-25T10:11:51;30.50;99.90
24146;DHT22;12308;50.948;4.706;2022-08-25T10:16:49;30.60;99.40
24146;DHT22;12308;50.948;4.706;2022-08-25T10:22:02;30.80;99.90
24146;DHT22;12308;50.948;4.706;2022-08-25T10:24:28;30.80;99.20
24146;DHT22;12308;50.948;4.706;2022-08-25T10:30:06;30.80;98.50
24146;DHT22;12308;50.948;4.706;2022-08-25T10:35:28;31.20;97.70
24146;DHT22;12308;50.948;4.706;2022-08-25T10:38:10;31.30;97.40
24146;DHT22;12308;50.948;4.706;2022-08-25T10:43:29;31.30;97.70
24146;DHT22;12308;50.948;4.706;2022-08-25T10:46:16;31.30;96.70
24146;DHT22;12308;50.948;4.706;2022-08-25T10:56:39;31.30;95.80
24146;DHT22;12308;50.948;4.706;2022-08-25T11:04:56;31.80;94.90
24146;DHT22;12308;50.948;4.706;2022-08-25T11:07:34;31.80;94.00
24146;DHT22;12308;50.948;4.706;2022-08-25T11:10:19;32.00;93.40
24146;DHT22;12308;50.948;4.706;2022-08-25T11:12:59;31.90;93.30
24146;DHT22;12308;50.948;4.706;2022-08-25T11:15:52;31.90;93.30
24146;DHT22;12308;50.948;4.706;2022-08-25T11:18:19;31.80;93.30
24146;DHT22;12308;50.948;4.706;2022-08-25T11:20:58;32.00;93.70
24146;DHT22;12308;50.948;4.706;2022-08-25T11:23:43;32.10;93.90
24146;DHT22;12308;50.948;4.706;2022-08-25T11:26:13;32.30;94.50
24146;DHT22;12308;50.948;4.706;2022-08-25T11:29:11;32.70;92.50
24146;DHT22;12308;50.948;4.706;2022-08-25T11:31:41;32.80;91.90
24146;DHT22;12308;50.948;4.706;2022-08-25T11:34:10;32.60;91.40
24146;DHT22;12308;50.948;4.706;2022-08-25T11:36:39;32.30;92.50
24146;DHT22;12308;50.948;4.706;2022-08-25T11:51:06;32.70;91.10
24146;DHT22;12308;50.948;4.706;2022-08-25T11:56:12;32.50;91.60
24146;DHT22;12308;50.948;4.706;2022-08-25T11:58:53;32.80;91.30
24146;DHT22;12308;50.948;4.706;2022-08-25T12:12:31;32.80;90.10
24146;DHT22;12308;50.948;4.706;2022-08-25T12:23:38;32.90;90.60
24146;DHT22;12308;50.948;4.706;2022-08-25T12:26:12;32.70;90.90
24146;DHT22;12308;50.948;4.706;2022-08-25T12:36:55;33.00;90.30
24146;DHT22;12308;50.948;4.706;2022-08-25T12:39:32;33.20;88.60
24146;DHT22;12308;50.948;4.706;2022-08-25T12:42:05;33.00;89.40
24146;DHT22;12308;50.948;4.706;2022-08-25T12:44:43;32.70;89.80
24146;DHT22;12308;50.948;4.706;2022-08-25T12:49:51;33.00;90.20
24146;DHT22;12308;50.948;4.706;2022-08-25T12:52:22;32.90;90.00
24146;DHT22;12308;50.948;4.706;2022-08-25T13:00:23;33.10;90.30
24146;DHT22;12308;50.948;4.706;2022-08-25T13:12:17;32.60;89.60
24146;DHT22;12308;50.948;4.706;2022-08-25T13:14:52;32.80;90.00
24146;DHT22;12308;50.948;4.706;2022-08-25T13:17:32;33.00;90.60
24146;DHT22;12308;50.948;4.706;2022-08-25T13:20:23;33.40;90.50
24146;DHT22;12308;50.948;4.706;2022-08-25T13:22:50;33.50;89.00
24146;DHT22;12308;50.948;4.706;2022-08-25T13:25:22;33.60;88.40
24146;DHT22;12308;50.948;4.706;2022-08-25T13:27:50;33.80;87.10
24146;DHT22;12308;50.948;4.706;2022-08-25T13:30:23;33.90;87.50
24146;DHT22;12308;50.948;4.706;2022-08-25T13:32:49;33.80;89.60
24146;DHT22;12308;50.948;4.706;2022-08-25T13:35:21;33.80;87.50
24146;DHT22;12308;50.948;4.706;2022-08-25T13:37:48;33.80;88.40
24146;DHT22;12308;50.948;4.706;2022-08-25T13:40:25;34.00;87.80
24146;DHT22;12308;50.948;4.706;2022-08-25T13:42:55;33.90;87.30
24146;DHT22;12308;50.948;4.706;2022-08-25T13:45:25;34.10;85.90
24146;DHT22;12308;50.948;4.706;2022-08-25T13:47:51;33.90;88.30
24146;DHT22;12308;50.948;4.706;2022-08-25T13:52:54;33.80;88.30
24146;DHT22;12308;50.948;4.706;2022-08-25T13:55:23;33.90;88.50
24146;DHT22;12308;50.948;4.706;2022-08-25T13:57:50;33.90;86.40
24146;DHT22;12308;50.948;4.706;2022-08-25T14:00:39;34.00;88.00
24146;DHT22;12308;50.948;4.706;2022-08-25T14:03:05;33.80;86.40
24146;DHT22;12308;50.948;4.706;2022-08-25T14:05:42;33.70;87.70
24146;DHT22;12308;50.948;4.706;2022-08-25T14:08:29;33.70;87.90
24146;DHT22;12308;50.948;4.706;2022-08-25T14:11:29;33.60;86.80
24146;DHT22;12308;50.948;4.706;2022-08-25T14:14:05;33.50;86.10
24146;DHT22;12308;50.948;4.706;2022-08-25T14:16:50;33.50;85.30
24146;DHT22;12308;50.948;4.706;2022-08-25T14:19:18;33.40;87.10
24146;DHT22;12308;50.948;4.706;2022-08-25T14:21:45;33.60;85.60
24146;DHT22;12308;50.948;4.706;2022-08-25T14:24:16;33.50;85.70
24146;DHT22;12308;50.948;4.706;2022-08-25T14:26:42;33.80;85.00
24146;DHT22;12308;50.948;4.706;2022-08-25T14:29:10;33.70;85.50
24146;DHT22;12308;50.948;4.706;2022-08-25T14:31:36;33.60;84.90
24146;DHT22;12308;50.948;4.706;2022-08-25T14:34:08;33.40;87.10
24146;DHT22;12308;50.948;4.706;2022-08-25T14:36:36;33.30;87.20
24146;DHT22;12308;50.948;4.706;2022-08-25T14:39:03;33.30;88.30
24146;DHT22;12308;50.948;4.706;2022-08-25T14:41:32;33.30;89.20
24146;DHT22;12308;50.948;4.706;2022-08-25T14:44:02;33.20;89.00
24146;DHT22;12308;50.948;4.706;2022-08-25T14:46:30;33.30;90.30
24146;DHT22;12308;50.948;4.706;2022-08-25T14:49:04;33.40;90.50
24146;DHT22;12308;50.948;4.706;2022-08-25T14:51:32;33.40;86.30
24146;DHT22;12308;50.948;4.706;2022-08-25T14:54:05;33.70;85.20
24146;DHT22;12308;50.948;4.706;2022-08-25T14:56:32;33.70;88.80
24146;DHT22;12308;50.948;4.706;2022-08-25T14:58:59;33.50;90.60
24146;DHT22;12308;50.948;4.706;2022-08-25T15:01:25;33.20;92.00
24146;DHT22;12308;50.948;4.706;2022-08-25T15:03:54;32.80;94.00
24146;DHT22;12308;50.948;4.706;2022-08-25T15:06:20;32.50;95.20
24146;DHT22;12308;50.948;4.706;2022-08-25T15:08:46;32.20;96.10
24146;DHT22;12308;50.948;4.706;2022-08-25T15:11:30;32.00;96.30
24146;DHT22;12308;50.948;4.706;2022-08-25T15:13:57;32.30;96.10
24146;DHT22;12308;50.948;4.706;2022-08-25T15:16:33;32.40;95.90
24146;DHT22;12308;50.948;4.706;2022-08-25T15:18:59;32.40;96.10
24146;DHT22;12308;50.948;4.706;2022-08-25T15:21:25;32.40;96.50
24146;DHT22;12308;50.948;4.706;2022-08-25T15:23:51;32.40;96.50
24146;DHT22;12308;50.948;4.706;2022-08-25T15:26:17;32.40;96.50
24146;DHT22;12308;50.948;4.706;2022-08-25T15:28:47;32.10;97.10
24146;DHT22;12308;50.948;4.706;2022-08-25T15:31:15;32.00;97.00
24146;DHT22;12308;50.948;4.706;2022-08-25T15:33:41;32.00;97.40
24146;DHT22;12308;50.948;4.706;2022-08-25T15:36:09;32.10;97.50
24146;DHT22;12308;50.948;4.706;2022-08-25T15:38:39;32.00;96.80
24146;DHT22;12308;50.948;4.706;2022-08-25T15:41:06;32.20;96.80
24146;DHT22;12308;50.948;4.706;2022-08-25T15:43:33;32.20;97.10
24146;DHT22;12308;50.948;4.706;2022-08-25T15:45:59;32.30;97.20
24146;DHT22;12308;50.948;4.706;2022-08-25T15:48:25;32.40;96.70
24146;DHT22;12308;50.948;4.706;2022-08-25T15:50:55;32.70;95.60
24146;DHT22;12308;50.948;4.706;2022-08-25T15:53:23;32.60;95.30
24146;DHT22;12308;50.948;4.706;2022-08-25T15:55:51;32.40;95.90
24146;DHT22;12308;50.948;4.706;2022-08-25T15:58:17;32.40;95.80
24146;DHT22;12308;50.948;4.706;2022-08-25T16:00:44;32.60;95.40
24146;DHT22;12308;50.948;4.706;2022-08-25T16:03:11;32.60;95.30
24146;DHT22;12308;50.948;4.706;2022-08-25T16:05:38;32.50;95.40
24146;DHT22;12308;50.948;4.706;2022-08-25T16:08:05;32.20;97.90
24146;DHT22;12308;50.948;4.706;2022-08-25T16:10:39;31.90;98.90
24146;DHT22;12308;50.948;4.706;2022-08-25T16:13:06;31.50;99.90
24146;DHT22;12308;50.948;4.706;2022-08-25T16:15:32;31.00;99.90
24146;DHT22;12308;50.948;4.706;2022-08-25T16:17:59;30.60;99.90
24146;DHT22;12308;50.948;4.706;2022-08-25T16:20:29;30.40;99.90
24146;DHT22;12308;50.948;4.706;2022-08-25T16:22:55;30.30;99.90
24146;DHT22;12308;50.948;4.706;2022-08-25T16:25:20;30.20;99.90
24146;DHT22;12308;50.948;4.706;2022-08-25T16:27:46;30.30;99.90
24146;DHT22;12308;50.948;4.706;2022-08-25T16:30:13;30.20;99.90
24146;DHT22;12308;50.948;4.706;2022-08-25T16:32:39;30.20;99.90
24146;DHT22;12308;50.948;4.706;2022-08-25T16:35:06;30.10;99.90
24146;DHT22;12308;50.948;4.706;2022-08-25T16:37:33;30.10;99.90
24146;DHT22;12308;50.948;4.706;2022-08-25T16:39:59;30.00;99.90
24146;DHT22;12308;50.948;4.706;2022-08-25T16:42:25;30.00;99.90
24146;DHT22;12308;50.948;4.706;2022-08-25T16:44:51;30.10;99.90
24146;DHT22;12308;50.948;4.706;2022-08-25T16:47:17;30.00;99.90
24146;DHT22;12308;50.948;4.706;2022-08-25T16:49:44;29.80;99.90
24146;DHT22;12308;50.948;4.706;2022-08-25T16:52:10;29.60;99.90
24146;DHT22;12308;50.948;4.706;2022-08-25T16:54:55;29.60;99.90
24146;DHT22;12308;50.948;4.706;2022-08-25T16:57:42;29.30;99.90
24146;DHT22;12308;50.948;4.706;2022-08-25T17:00:11;29.30;99.90
24146;DHT22;12308;50.948;4.706;2022-08-25T17:02:38;29.30;99.90
24146;DHT22;12308;50.948;4.706;2022-08-25T17:05:05;29.20;99.90
24146;DHT22;12308;50.948;4.706;2022-08-25T17:07:32;29.10;99.90
24146;DHT22;12308;50.948;4.706;2022-08-25T17:09:58;29.00;99.90
24146;DHT22;12308;50.948;4.706;2022-08-25T17:12:24;29.00;99.90
24146;DHT22;12308;50.948;4.706;2022-08-25T17:14:50;28.80;99.90
24146;DHT22;12308;50.948;4.706;2022-08-25T17:17:17;28.70;99.90
24146;DHT22;12308;50.948;4.706;2022-08-25T17:19:42;28.70;99.90
24146;DHT22;12308;50.948;4.706;2022-08-25T17:22:08;28.60;99.90
24146;DHT22;12308;50.948;4.706;2022-08-25T17:24:39;28.50;99.90
24146;DHT22;12308;50.948;4.706;2022-08-25T17:27:04;28.50;99.90
24146;DHT22;12308;50.948;4.706;2022-08-25T17:29:30;28.40;99.90
24146;DHT22;12308;50.948;4.706;2022-08-25T17:31:56;28.20;99.90
24146;DHT22;12308;50.948;4.706;2022-08-25T17:34:22;28.30;99.90
24146;DHT22;12308;50.948;4.706;2022-08-25T17:36:48;28.10;99.90
24146;DHT22;12308;50.948;4.706;2022-08-25T17:39:14;28.10;99.90
24146;DHT22;12308;50.948;4.706;2022-08-25T17:41:42;28.00;99.90